createdAt,value
2023-04-14T00:00:28.000Z,275.65
2023-04-14T00:01:55.000Z,275.65
2023-04-14T00:04:01.000Z,275.59
2023-04-14T00:05:28.000Z,275.59
2023-04-14T00:07:34.000Z,275.65
2023-04-14T00:09:01.000Z,275.65
2023-04-14T00:11:07.000Z,275.71
2023-04-14T00:12:34.000Z,275.77
2023-04-14T00:14:40.000Z,275.71
2023-04-14T00:16:07.000Z,275.71
2023-04-14T00:18:13.000Z,275.65
2023-04-14T00:19:39.000Z,275.71
2023-04-14T00:21:45.000Z,275.65
2023-04-14T00:23:12.000Z,275.71
2023-04-14T00:25:18.000Z,275.65
2023-04-14T00:26:45.000Z,275.71
2023-04-14T00:28:51.000Z,275.77
2023-04-14T00:30:17.000Z,275.77
2023-04-14T00:32:23.000Z,275.77
2023-04-14T00:35:15.000Z,275.77
2023-04-14T00:36:41.000Z,275.77
2023-04-14T00:38:47.000Z,275.77
2023-04-14T00:40:14.000Z,275.77
2023-04-14T00:42:20.000Z,275.77
2023-04-14T00:43:46.000Z,275.71
2023-04-14T00:45:52.000Z,275.71
2023-04-14T00:47:19.000Z,275.59
2023-04-14T00:49:25.000Z,275.59
2023-04-14T00:50:52.000Z,275.52
2023-04-14T00:52:58.000Z,275.59
2023-04-14T00:54:24.000Z,275.59
2023-04-14T00:56:31.000Z,275.59
2023-04-14T00:57:57.000Z,275.65
2023-04-14T01:00:03.000Z,275.65
2023-04-14T01:01:30.000Z,275.65
2023-04-14T01:03:36.000Z,275.71
2023-04-14T01:05:02.000Z,275.65
2023-04-14T01:07:09.000Z,275.52
2023-04-14T01:08:35.000Z,275.46
2023-04-14T01:10:41.000Z,275.27
2023-04-14T01:13:32.000Z,275.21
2023-04-14T01:14:59.000Z,275.21
2023-04-14T01:17:05.000Z,275.21
2023-04-14T01:18:31.000Z,275.15
2023-04-14T01:20:38.000Z,275.02
2023-04-14T01:22:04.000Z,275.02
2023-04-14T01:24:10.000Z,275.02
2023-04-14T01:25:37.000Z,275.09
2023-04-14T01:27:43.000Z,275.02
2023-04-14T01:29:09.000Z,274.96
2023-04-14T01:31:15.000Z,274.9
2023-04-14T01:32:42.000Z,274.9
2023-04-14T01:34:48.000Z,274.9
2023-04-14T01:36:15.000Z,274.9
2023-04-14T01:38:21.000Z,274.84
2023-04-14T01:39:47.000Z,274.9
2023-04-14T01:41:53.000Z,275.02
2023-04-14T01:43:20.000Z,275.02
2023-04-14T01:45:26.000Z,274.9
2023-04-14T01:46:53.000Z,274.96
2023-04-14T01:48:59.000Z,274.96
2023-04-14T01:51:50.000Z,274.96
2023-04-14T01:53:17.000Z,274.96
2023-04-14T01:55:23.000Z,275.09
2023-04-14T01:56:49.000Z,275.15
2023-04-14T01:58:56.000Z,275.09
2023-04-14T02:00:22.000Z,275.02
2023-04-14T02:02:28.000Z,275.02
2023-04-14T02:03:55.000Z,275.09
2023-04-14T02:06:01.000Z,274.9
2023-04-14T02:07:28.000Z,274.84
2023-04-14T02:09:34.000Z,274.84
2023-04-14T02:11:00.000Z,274.77
2023-04-14T02:13:07.000Z,274.71
2023-04-14T02:14:33.000Z,274.71
2023-04-14T02:16:39.000Z,274.77
2023-04-14T02:18:06.000Z,274.71
2023-04-14T02:20:12.000Z,274.71
2023-04-14T02:21:38.000Z,274.71
2023-04-14T02:23:45.000Z,274.59
2023-04-14T02:25:11.000Z,274.65
2023-04-14T02:27:17.000Z,274.71
2023-04-14T02:30:08.000Z,274.71
2023-04-14T02:31:34.000Z,274.65
2023-04-14T02:33:41.000Z,274.65
2023-04-14T02:35:07.000Z,274.59
2023-04-14T02:37:13.000Z,274.34
2023-04-14T02:38:40.000Z,274.34
2023-04-14T02:40:46.000Z,274.21
2023-04-14T02:42:12.000Z,274.21
2023-04-14T02:44:18.000Z,274.21
2023-04-14T02:45:45.000Z,274.15
2023-04-14T02:47:51.000Z,274.09
2023-04-14T02:49:17.000Z,274.15
2023-04-14T02:51:24.000Z,274.09
2023-04-14T02:52:50.000Z,273.96
2023-04-14T02:54:56.000Z,273.9
2023-04-14T02:56:23.000Z,273.84
2023-04-14T02:58:29.000Z,273.9
2023-04-14T02:59:55.000Z,273.9
2023-04-14T03:02:01.000Z,273.9
2023-04-14T03:03:28.000Z,273.9
2023-04-14T03:05:34.000Z,273.96
2023-04-14T03:08:25.000Z,273.9
2023-04-14T03:09:52.000Z,273.96
2023-04-14T03:11:58.000Z,273.96
2023-04-14T03:13:25.000Z,273.9
2023-04-14T03:15:31.000Z,273.9
2023-04-14T03:16:57.000Z,273.9
2023-04-14T03:19:03.000Z,273.9
2023-04-14T03:20:30.000Z,273.96
2023-04-14T03:22:36.000Z,274.02
2023-04-14T03:24:02.000Z,274.02
2023-04-14T03:26:09.000Z,273.96
2023-04-14T03:27:35.000Z,273.96
2023-04-14T03:29:41.000Z,273.9
2023-04-14T03:31:08.000Z,273.9
2023-04-14T03:33:14.000Z,273.96
2023-04-14T03:34:40.000Z,273.96
2023-04-14T03:36:46.000Z,274.02
2023-04-14T03:38:13.000Z,274.02
2023-04-14T03:40:19.000Z,273.96
2023-04-14T03:41:46.000Z,273.9
2023-04-14T03:43:52.000Z,273.9
2023-04-14T03:46:43.000Z,274.02
2023-04-14T03:48:10.000Z,274.02
2023-04-14T03:50:16.000Z,274.02
2023-04-14T03:51:43.000Z,274.02
2023-04-14T03:53:49.000Z,273.84
2023-04-14T03:55:15.000Z,273.9
2023-04-14T03:57:21.000Z,273.96
2023-04-14T03:58:48.000Z,273.9
2023-04-14T04:00:54.000Z,273.9
2023-04-14T04:02:20.000Z,273.96
2023-04-14T04:04:27.000Z,273.96
2023-04-14T04:05:53.000Z,273.96
2023-04-14T04:07:59.000Z,274.02
2023-04-14T04:09:26.000Z,274.02
2023-04-14T04:11:32.000Z,274.02
2023-04-14T04:12:59.000Z,274.09
2023-04-14T04:15:05.000Z,274.09
2023-04-14T04:16:31.000Z,274.15
2023-04-14T04:18:37.000Z,274.09
2023-04-14T04:20:04.000Z,273.96
2023-04-14T04:22:11.000Z,273.9
2023-04-14T04:25:02.000Z,273.9
2023-04-14T04:26:29.000Z,273.96
2023-04-14T04:28:35.000Z,273.9
2023-04-14T04:30:01.000Z,273.9
2023-04-14T04:32:07.000Z,273.96
2023-04-14T04:33:34.000Z,274.02
2023-04-14T04:35:40.000Z,274.02
2023-04-14T04:37:07.000Z,274.02
2023-04-14T04:39:13.000Z,274.02
2023-04-14T04:40:39.000Z,274.02
2023-04-14T04:42:45.000Z,274.02
2023-04-14T04:44:12.000Z,273.96
2023-04-14T04:46:18.000Z,273.9
2023-04-14T04:47:44.000Z,273.9
2023-04-14T04:49:51.000Z,273.77
2023-04-14T04:51:17.000Z,273.77
2023-04-14T04:53:23.000Z,273.77
2023-04-14T04:54:50.000Z,273.71
2023-04-14T04:56:56.000Z,273.77
2023-04-14T04:58:23.000Z,273.77
2023-04-14T05:00:29.000Z,273.77
2023-04-14T05:03:19.000Z,273.84
2023-04-14T05:04:46.000Z,273.9
2023-04-14T05:06:53.000Z,273.96
2023-04-14T05:08:19.000Z,273.96
2023-04-14T05:10:25.000Z,273.96
2023-04-14T05:11:52.000Z,273.84
2023-04-14T05:13:58.000Z,273.9
2023-04-14T05:15:24.000Z,273.84
2023-04-14T05:17:31.000Z,273.9
2023-04-14T05:18:57.000Z,273.96
2023-04-14T05:21:04.000Z,273.9
2023-04-14T05:22:30.000Z,273.84
2023-04-14T05:24:37.000Z,273.84
2023-04-14T05:26:03.000Z,273.84
2023-04-14T05:28:39.000Z,273.9
2023-04-14T05:30:05.000Z,273.84
2023-04-14T05:32:12.000Z,273.84
2023-04-14T05:33:38.000Z,273.84
2023-04-14T05:35:44.000Z,273.77
2023-04-14T05:37:11.000Z,273.77
2023-04-14T05:39:17.000Z,273.77
2023-04-14T05:42:08.000Z,273.77
2023-04-14T05:43:35.000Z,273.84
2023-04-14T05:45:41.000Z,273.96
2023-04-14T05:47:08.000Z,274.02
2023-04-14T05:49:14.000Z,274.09
2023-04-14T05:50:40.000Z,274.15
2023-04-14T05:52:46.000Z,274.21
2023-04-14T05:54:13.000Z,274.21
2023-04-14T05:56:19.000Z,274.15
2023-04-14T05:57:45.000Z,274.21
2023-04-14T05:59:52.000Z,274.09
2023-04-14T06:01:19.000Z,274.27
2023-04-14T06:03:26.000Z,274.21
2023-04-14T06:04:52.000Z,274.09
2023-04-14T06:06:59.000Z,274.09
2023-04-14T06:08:25.000Z,274.21
2023-04-14T06:10:31.000Z,274.21
2023-04-14T06:11:58.000Z,274.27
2023-04-14T06:14:04.000Z,274.34
2023-04-14T06:15:31.000Z,274.46
2023-04-14T06:17:37.000Z,274.52
2023-04-14T06:20:28.000Z,274.71
2023-04-14T06:21:56.000Z,274.71
2023-04-14T06:24:03.000Z,274.71
2023-04-14T06:27:35.000Z,274.71
2023-04-14T06:29:02.000Z,274.9
2023-04-14T06:31:08.000Z,275.02
2023-04-14T06:32:35.000Z,275.15
2023-04-14T06:34:41.000Z,275.09
2023-04-14T06:36:07.000Z,275.02
2023-04-14T06:38:13.000Z,275.21
2023-04-14T06:39:40.000Z,275.4
2023-04-14T06:41:46.000Z,275.34
2023-04-14T06:43:13.000Z,275.34
2023-04-14T06:45:19.000Z,275.34
2023-04-14T06:46:45.000Z,275.4
2023-04-14T06:48:51.000Z,275.52
2023-04-14T06:50:18.000Z,275.52
2023-04-14T06:52:24.000Z,275.77
2023-04-14T06:53:50.000Z,275.84
2023-04-14T06:55:57.000Z,276.02
2023-04-14T06:58:48.000Z,276.09
2023-04-14T07:00:15.000Z,276.27
2023-04-14T07:02:21.000Z,276.34
2023-04-14T07:03:48.000Z,276.4
2023-04-14T07:05:54.000Z,276.21
2023-04-14T07:07:20.000Z,276.09
2023-04-14T07:09:27.000Z,276.21
2023-04-14T07:10:53.000Z,276.34
2023-04-14T07:12:59.000Z,276.27
2023-04-14T07:14:26.000Z,276.4
2023-04-14T07:16:32.000Z,276.59
2023-04-14T07:17:58.000Z,276.71
2023-04-14T07:20:04.000Z,276.9
2023-04-14T07:21:31.000Z,277.02
2023-04-14T07:23:37.000Z,277.09
2023-04-14T07:25:04.000Z,277.15
2023-04-14T07:27:10.000Z,276.9
2023-04-14T07:28:37.000Z,276.77
2023-04-14T07:30:43.000Z,276.96
2023-04-14T07:32:09.000Z,277.09
2023-04-14T07:34:15.000Z,277.15
2023-04-14T07:37:06.000Z,277.4
2023-04-14T07:38:33.000Z,277.46
2023-04-14T07:40:39.000Z,277.46
2023-04-14T07:42:06.000Z,277.34
2023-04-14T07:44:12.000Z,277.21
2023-04-14T07:45:38.000Z,277.27
2023-04-14T07:47:44.000Z,277.52
2023-04-14T07:49:11.000Z,277.71
2023-04-14T07:51:17.000Z,277.84
2023-04-14T07:52:44.000Z,277.9
2023-04-14T07:54:50.000Z,278.02
2023-04-14T07:56:16.000Z,278.15
2023-04-14T07:58:23.000Z,278.34
2023-04-14T07:59:52.000Z,278.46
2023-04-14T08:01:58.000Z,278.59
2023-04-14T08:03:25.000Z,278.59
2023-04-14T08:05:31.000Z,278.84
2023-04-14T08:06:58.000Z,278.9
2023-04-14T08:09:04.000Z,278.96
2023-04-14T08:10:30.000Z,279.02
2023-04-14T08:12:36.000Z,279.09
2023-04-14T08:15:27.000Z,279.15
2023-04-14T08:16:54.000Z,279.21
2023-04-14T08:19:00.000Z,279.34
2023-04-14T08:20:27.000Z,279.4
2023-04-14T08:22:33.000Z,279.46
2023-04-14T08:24:00.000Z,279.52
2023-04-14T08:26:06.000Z,279.59
2023-04-14T08:27:32.000Z,279.71
2023-04-14T08:29:39.000Z,279.84
2023-04-14T08:31:05.000Z,279.71
2023-04-14T08:33:11.000Z,279.65
2023-04-14T08:34:38.000Z,279.84
2023-04-14T08:37:44.000Z,280.02
2023-04-14T08:39:10.000Z,280.15
2023-04-14T08:41:17.000Z,280.15
2023-04-14T08:42:43.000Z,280.27
2023-04-14T08:44:49.000Z,280.46
2023-04-14T08:46:16.000Z,280.59
2023-04-14T08:48:22.000Z,280.65
2023-04-14T08:49:50.000Z,280.71
2023-04-14T08:51:56.000Z,280.77
2023-04-14T08:54:47.000Z,281.02
2023-04-14T08:56:13.000Z,281.15
2023-04-14T08:58:19.000Z,281.21
2023-04-14T08:59:46.000Z,281.21
2023-04-14T09:01:52.000Z,281.34
2023-04-14T09:03:19.000Z,281.21
2023-04-14T09:05:25.000Z,281.15
2023-04-14T09:06:52.000Z,281.09
2023-04-14T09:08:58.000Z,281.02
2023-04-14T09:10:24.000Z,281.09
2023-04-14T09:12:30.000Z,281.09
2023-04-14T09:13:57.000Z,281.09
2023-04-14T09:16:04.000Z,281.15
2023-04-14T09:17:30.000Z,281.21
2023-04-14T09:19:36.000Z,281.34
2023-04-14T09:22:01.000Z,281.34
2023-04-14T09:24:07.000Z,281.4
2023-04-14T09:25:36.000Z,281.46
2023-04-14T09:27:42.000Z,281.46
2023-04-14T09:29:09.000Z,281.52
2023-04-14T09:31:15.000Z,281.65
2023-04-14T09:34:06.000Z,281.77
2023-04-14T09:35:33.000Z,281.84
2023-04-14T09:37:39.000Z,281.9
2023-04-14T09:39:05.000Z,281.96
2023-04-14T09:41:12.000Z,282.02
2023-04-14T09:42:38.000Z,282.09
2023-04-14T09:44:44.000Z,282.27
2023-04-14T09:46:11.000Z,282.46
2023-04-14T09:48:17.000Z,282.4
2023-04-14T09:49:43.000Z,282.27
2023-04-14T09:51:49.000Z,282.52
2023-04-14T09:53:16.000Z,282.71
2023-04-14T09:55:22.000Z,283.02
2023-04-14T09:56:48.000Z,283.15
2023-04-14T09:58:54.000Z,283.21
2023-04-14T10:00:21.000Z,283.21
2023-04-14T10:02:27.000Z,283.21
2023-04-14T10:03:54.000Z,283.27
2023-04-14T10:06:00.000Z,283.4
2023-04-14T10:07:27.000Z,283.46
2023-04-14T10:09:33.000Z,283.4
2023-04-14T10:12:24.000Z,283.4
2023-04-14T10:13:50.000Z,283.4
2023-04-14T10:15:56.000Z,283.4
2023-04-14T10:17:23.000Z,283.52
2023-04-14T10:19:33.000Z,283.59
2023-04-14T10:20:59.000Z,283.77
2023-04-14T10:23:05.000Z,284.09
2023-04-14T10:24:32.000Z,284.21
2023-04-14T10:26:38.000Z,284.4
2023-04-14T10:28:04.000Z,284.59
2023-04-14T10:30:10.000Z,284.71
2023-04-14T10:31:37.000Z,284.9
2023-04-14T10:33:43.000Z,284.9
2023-04-14T10:35:10.000Z,284.9
2023-04-14T10:37:16.000Z,284.9
2023-04-14T10:38:42.000Z,285.02
2023-04-14T10:40:49.000Z,285.15
2023-04-14T10:42:15.000Z,285.21
2023-04-14T10:44:21.000Z,285.02
2023-04-14T10:45:48.000Z,285.09
2023-04-14T10:47:54.000Z,285.09
2023-04-14T10:50:45.000Z,285.02
2023-04-14T10:52:11.000Z,284.96
2023-04-14T10:54:18.000Z,285.15
2023-04-14T10:55:44.000Z,285.21
2023-04-14T10:57:56.000Z,285.27
2023-04-14T10:59:22.000Z,285.34
2023-04-14T11:01:29.000Z,285.34
2023-04-14T11:02:55.000Z,285.27
2023-04-14T11:05:02.000Z,285.27
2023-04-14T11:06:29.000Z,285.4
2023-04-14T11:08:35.000Z,285.34
2023-04-14T11:10:01.000Z,285.46
2023-04-14T11:12:07.000Z,285.59
2023-04-14T11:13:34.000Z,285.59
2023-04-14T11:15:40.000Z,285.71
2023-04-14T11:17:07.000Z,285.71
2023-04-14T11:19:13.000Z,285.77
2023-04-14T11:20:39.000Z,285.84
2023-04-14T11:22:45.000Z,285.9
2023-04-14T11:24:12.000Z,285.96
2023-04-14T11:26:18.000Z,285.96
2023-04-14T11:29:09.000Z,285.9
2023-04-14T11:30:36.000Z,285.9
2023-04-14T11:32:42.000Z,286.27
2023-04-14T11:34:08.000Z,286.09
2023-04-14T11:36:14.000Z,286.15
2023-04-14T11:37:41.000Z,286.02
2023-04-14T11:39:47.000Z,286.27
2023-04-14T11:41:14.000Z,286.46
2023-04-14T11:43:20.000Z,286.65
2023-04-14T11:44:47.000Z,286.9
2023-04-14T11:46:53.000Z,287.02
2023-04-14T11:48:20.000Z,286.65
2023-04-14T11:50:26.000Z,286.34
2023-04-14T11:51:52.000Z,286.02
2023-04-14T11:53:58.000Z,285.9
2023-04-14T11:55:25.000Z,285.84
2023-04-14T11:57:31.000Z,286.34
2023-04-14T11:58:57.000Z,286.52
2023-04-14T12:01:04.000Z,286.77
2023-04-14T12:02:31.000Z,286.84
2023-04-14T12:04:37.000Z,286.96
2023-04-14T12:07:29.000Z,287.21
2023-04-14T12:08:55.000Z,287.21
2023-04-14T12:11:01.000Z,286.96
2023-04-14T12:12:28.000Z,286.84
2023-04-14T12:14:34.000Z,286.9
2023-04-14T12:16:01.000Z,286.96
2023-04-14T12:18:07.000Z,286.77
2023-04-14T12:19:33.000Z,286.65
2023-04-14T12:21:39.000Z,286.46
2023-04-14T12:23:06.000Z,286.34
2023-04-14T12:25:12.000Z,286.34
2023-04-14T12:26:39.000Z,286.52
2023-04-14T12:28:45.000Z,286.65
2023-04-14T12:30:11.000Z,286.71
2023-04-14T12:32:18.000Z,286.59
2023-04-14T12:33:44.000Z,286.65
2023-04-14T12:35:50.000Z,286.84
2023-04-14T12:37:17.000Z,287.21
2023-04-14T12:39:23.000Z,287.4
2023-04-14T12:40:49.000Z,287.65
2023-04-14T12:42:56.000Z,287.77
2023-04-14T12:45:47.000Z,287.65
2023-04-14T12:47:13.000Z,287.65
2023-04-14T12:49:19.000Z,287.34
2023-04-14T12:50:46.000Z,287.46
2023-04-14T12:52:53.000Z,287.52
2023-04-14T12:54:19.000Z,287.46
2023-04-14T12:56:25.000Z,287.52
2023-04-14T12:57:52.000Z,287.15
2023-04-14T12:59:58.000Z,286.59
2023-04-14T13:01:25.000Z,286.46
2023-04-14T13:03:31.000Z,286.59
2023-04-14T13:04:58.000Z,286.84
2023-04-14T13:07:04.000Z,287.02
2023-04-14T13:08:30.000Z,286.96
2023-04-14T13:10:36.000Z,287.02
2023-04-14T13:12:03.000Z,287.27
2023-04-14T13:14:09.000Z,287.52
2023-04-14T13:15:36.000Z,287.46
2023-04-14T13:18:19.000Z,287.34
2023-04-14T13:19:46.000Z,287.34
2023-04-14T13:21:52.000Z,287.46
2023-04-14T13:24:43.000Z,287.46
2023-04-14T13:26:10.000Z,287.34
2023-04-14T13:28:16.000Z,287.27
2023-04-14T13:29:42.000Z,287.27
2023-04-14T13:31:48.000Z,287.52
2023-04-14T13:33:15.000Z,287.59
2023-04-14T13:35:21.000Z,287.77
2023-04-14T13:36:48.000Z,287.9
2023-04-14T13:38:54.000Z,287.96
2023-04-14T13:40:20.000Z,288.09
2023-04-14T13:42:26.000Z,288.02
2023-04-14T13:43:53.000Z,287.9
2023-04-14T13:45:59.000Z,287.84
2023-04-14T13:47:26.000Z,287.77
2023-04-14T13:49:32.000Z,287.65
2023-04-14T13:50:58.000Z,287.9
2023-04-14T13:53:04.000Z,287.96
2023-04-14T13:54:31.000Z,288.09
2023-04-14T13:56:37.000Z,288.02
2023-04-14T13:58:03.000Z,288.09
2023-04-14T14:00:10.000Z,288.09
2023-04-14T14:03:01.000Z,288.21
2023-04-14T14:04:27.000Z,288.27
2023-04-14T14:06:33.000Z,288.09
2023-04-14T14:08:00.000Z,288.27
2023-04-14T14:10:06.000Z,288.4
2023-04-14T14:11:33.000Z,288.4
2023-04-14T14:13:39.000Z,288.4
2023-04-14T14:15:05.000Z,288.34
2023-04-14T14:17:12.000Z,288.71
2023-04-14T14:18:38.000Z,289.02
2023-04-14T14:20:44.000Z,288.96
2023-04-14T14:22:11.000Z,288.84
2023-04-14T14:24:17.000Z,288.84
2023-04-14T14:25:43.000Z,288.77
2023-04-14T14:27:49.000Z,288.4
2023-04-14T14:29:16.000Z,288.34
2023-04-14T14:31:22.000Z,288.02
2023-04-14T14:32:49.000Z,287.77
2023-04-14T14:34:55.000Z,287.59
2023-04-14T14:36:21.000Z,287.52
2023-04-14T14:38:27.000Z,287.65
2023-04-14T14:41:19.000Z,288.09
2023-04-14T14:42:45.000Z,287.9
2023-04-14T14:44:51.000Z,287.59
2023-04-14T14:46:18.000Z,287.27
2023-04-14T14:48:24.000Z,287.59
2023-04-14T14:49:51.000Z,287.71
2023-04-14T14:52:05.000Z,287.84
2023-04-14T14:53:31.000Z,287.84
2023-04-14T14:55:37.000Z,287.84
2023-04-14T14:57:04.000Z,287.71
2023-04-14T14:59:10.000Z,287.96
2023-04-14T15:00:37.000Z,288.09
2023-04-14T15:02:43.000Z,287.96
2023-04-14T15:04:10.000Z,287.96
2023-04-14T15:06:16.000Z,287.65
2023-04-14T15:07:42.000Z,287.9
2023-04-14T15:09:49.000Z,288.09
2023-04-14T15:11:15.000Z,288.02
2023-04-14T15:13:21.000Z,287.96
2023-04-14T15:14:48.000Z,287.96
2023-04-14T15:16:54.000Z,288.15
2023-04-14T15:19:45.000Z,288.09
2023-04-14T15:21:11.000Z,287.9
2023-04-14T15:23:18.000Z,287.4
2023-04-14T15:24:44.000Z,287.4
2023-04-14T15:26:50.000Z,287.21
2023-04-14T15:28:17.000Z,287.21
2023-04-14T15:30:23.000Z,287.02
2023-04-14T15:31:49.000Z,286.77
2023-04-14T15:33:56.000Z,286.59
2023-04-14T15:35:22.000Z,286.46
2023-04-14T15:37:28.000Z,286.71
2023-04-14T15:38:55.000Z,287.02
2023-04-14T15:41:01.000Z,287.34
2023-04-14T15:42:30.000Z,287.34
2023-04-14T15:44:36.000Z,287.52
2023-04-14T15:46:02.000Z,287.4
2023-04-14T15:48:08.000Z,287.71
2023-04-14T15:49:35.000Z,287.77
2023-04-14T15:51:41.000Z,287.65
2023-04-14T15:53:08.000Z,287.84
2023-04-14T15:55:14.000Z,287.96
2023-04-14T15:58:06.000Z,287.9
2023-04-14T15:59:32.000Z,287.77
2023-04-14T16:01:38.000Z,287.65
2023-04-14T16:03:05.000Z,287.65
2023-04-14T16:05:11.000Z,287.52
2023-04-14T16:06:38.000Z,287.59
2023-04-14T16:08:44.000Z,288.02
2023-04-14T16:10:11.000Z,288.09
2023-04-14T16:12:17.000Z,288.21
2023-04-14T16:13:43.000Z,288.21
2023-04-14T16:15:50.000Z,288.4
2023-04-14T16:17:16.000Z,288.21
2023-04-14T16:19:23.000Z,288.27
2023-04-14T16:20:49.000Z,288.34
2023-04-14T16:22:55.000Z,288.27
2023-04-14T16:24:22.000Z,288.27
2023-04-14T16:26:28.000Z,288.09
2023-04-14T16:27:54.000Z,288.21
2023-04-14T16:30:00.000Z,288.09
2023-04-14T16:31:27.000Z,288.21
2023-04-14T16:33:33.000Z,288.21
2023-04-14T16:36:24.000Z,288.09
2023-04-14T16:37:51.000Z,287.96
2023-04-14T16:39:57.000Z,287.65
2023-04-14T16:41:23.000Z,287.77
2023-04-14T16:43:30.000Z,287.96
2023-04-14T16:44:56.000Z,288.09
2023-04-14T16:47:02.000Z,287.96
2023-04-14T16:48:29.000Z,287.96
2023-04-14T16:50:35.000Z,287.96
2023-04-14T16:52:02.000Z,287.84
2023-04-14T16:54:08.000Z,287.84
2023-04-14T16:55:34.000Z,287.71
2023-04-14T16:57:41.000Z,287.71
2023-04-14T16:59:07.000Z,287.59
2023-04-14T17:01:13.000Z,287.52
2023-04-14T17:02:40.000Z,287.46
2023-04-14T17:04:47.000Z,287.34
2023-04-14T17:06:13.000Z,287.34
2023-04-14T17:08:20.000Z,287.15
2023-04-14T17:09:46.000Z,287.02
2023-04-14T17:11:52.000Z,286.9
2023-04-14T17:14:43.000Z,286.77
2023-04-14T17:16:10.000Z,286.77
2023-04-14T17:18:16.000Z,286.71
2023-04-14T17:19:42.000Z,286.59
2023-04-14T17:21:49.000Z,286.52
2023-04-14T17:23:15.000Z,286.46
2023-04-14T17:25:21.000Z,286.4
2023-04-14T17:26:48.000Z,286.4
2023-04-14T17:28:54.000Z,286.21
2023-04-14T17:30:20.000Z,286.15
2023-04-14T17:32:26.000Z,286.02
2023-04-14T17:33:53.000Z,285.96
2023-04-14T17:35:59.000Z,285.9
2023-04-14T17:37:25.000Z,285.9
2023-04-14T17:39:32.000Z,285.84
2023-04-14T17:40:58.000Z,285.77
2023-04-14T17:43:04.000Z,285.65
2023-04-14T17:44:31.000Z,285.59
2023-04-14T17:46:37.000Z,285.52
2023-04-14T17:48:03.000Z,285.52
2023-04-14T17:50:11.000Z,285.46
2023-04-14T17:53:02.000Z,285.4
2023-04-14T17:54:29.000Z,285.34
2023-04-14T17:56:35.000Z,285.27
2023-04-14T17:58:01.000Z,285.09
2023-04-14T18:00:07.000Z,284.9
2023-04-14T18:01:34.000Z,284.77
2023-04-14T18:03:40.000Z,284.71
2023-04-14T18:05:07.000Z,284.52
2023-04-14T18:07:13.000Z,284.21
2023-04-14T18:08:39.000Z,284.02
2023-04-14T18:10:45.000Z,283.71
2023-04-14T18:12:12.000Z,283.59
2023-04-14T18:14:18.000Z,283.52
2023-04-14T18:15:45.000Z,283.4
2023-04-14T18:17:51.000Z,283.15
2023-04-14T18:19:17.000Z,283.02
2023-04-14T18:21:23.000Z,282.77
2023-04-14T18:22:50.000Z,282.71
2023-04-14T18:24:56.000Z,282.46
2023-04-14T18:26:23.000Z,282.34
2023-04-14T18:28:31.000Z,282.27
2023-04-14T18:31:22.000Z,282.09
2023-04-14T18:32:48.000Z,281.9
2023-04-14T18:34:54.000Z,282.02
2023-04-14T18:36:21.000Z,281.96
2023-04-14T18:38:27.000Z,281.84
2023-04-14T18:39:53.000Z,281.65
2023-04-14T18:41:59.000Z,281.52
2023-04-14T18:43:26.000Z,281.4
2023-04-14T18:45:32.000Z,281.27
2023-04-14T18:46:59.000Z,281.15
2023-04-14T18:49:05.000Z,280.96
2023-04-14T18:50:31.000Z,280.9
2023-04-14T18:52:37.000Z,280.9
2023-04-14T18:54:04.000Z,280.84
2023-04-14T18:56:10.000Z,280.65
2023-04-14T18:57:37.000Z,280.65
2023-04-14T18:59:43.000Z,280.59
2023-04-14T19:01:09.000Z,280.46
2023-04-14T19:03:15.000Z,280.46
2023-04-14T19:04:42.000Z,280.46
2023-04-14T19:06:48.000Z,280.4
2023-04-14T19:09:39.000Z,280.21
2023-04-14T19:11:06.000Z,280.09
2023-04-14T19:13:12.000Z,279.96
2023-04-14T19:14:38.000Z,279.9
2023-04-14T19:16:44.000Z,279.84
2023-04-14T19:18:11.000Z,279.77
2023-04-14T19:20:17.000Z,279.71
2023-04-14T19:21:44.000Z,279.77
2023-04-14T19:23:50.000Z,279.65
2023-04-14T19:25:16.000Z,279.65
2023-04-14T19:27:22.000Z,279.65
2023-04-14T19:28:49.000Z,279.71
2023-04-14T19:30:55.000Z,279.71
2023-04-14T19:32:21.000Z,279.65
2023-04-14T19:34:28.000Z,279.59
2023-04-14T19:35:54.000Z,279.59
2023-04-14T19:38:00.000Z,279.46
2023-04-14T19:39:27.000Z,279.46
2023-04-14T19:41:33.000Z,279.27
2023-04-14T19:42:59.000Z,279.15
2023-04-14T19:45:05.000Z,279.02
2023-04-14T19:47:57.000Z,278.96
2023-04-14T19:49:29.000Z,278.96
2023-04-14T19:51:35.000Z,278.84
2023-04-14T19:53:02.000Z,278.77
2023-04-14T19:55:08.000Z,278.77
2023-04-14T19:56:34.000Z,278.9
2023-04-14T19:58:41.000Z,278.9
2023-04-14T20:00:07.000Z,278.96
2023-04-14T20:02:13.000Z,278.9
2023-04-14T20:03:40.000Z,278.77
2023-04-14T20:06:16.000Z,278.52
2023-04-14T20:07:42.000Z,278.46
2023-04-14T20:09:48.000Z,278.34
2023-04-14T20:11:15.000Z,278.34
2023-04-14T20:13:21.000Z,278.21
2023-04-14T20:14:48.000Z,278.21
2023-04-14T20:16:54.000Z,278.15
2023-04-14T20:18:21.000Z,278.09
2023-04-14T20:20:27.000Z,278.09
2023-04-14T20:21:53.000Z,278.02
2023-04-14T20:23:59.000Z,277.96
2023-04-14T20:26:51.000Z,277.9
2023-04-14T20:28:17.000Z,277.84
2023-04-14T20:30:23.000Z,277.9
2023-04-14T20:31:50.000Z,277.84
2023-04-14T20:33:56.000Z,277.84
2023-04-14T20:35:22.000Z,277.77
2023-04-14T20:37:28.000Z,277.65
2023-04-14T20:38:55.000Z,277.59
2023-04-14T20:41:01.000Z,277.65
2023-04-14T20:42:28.000Z,277.65
2023-04-14T20:44:34.000Z,277.65
2023-04-14T20:46:00.000Z,277.59
2023-04-14T20:48:06.000Z,277.59
2023-04-14T20:49:33.000Z,277.52
2023-04-14T20:51:39.000Z,277.46
2023-04-14T20:53:05.000Z,277.4
2023-04-14T20:55:11.000Z,277.34
2023-04-14T20:56:38.000Z,277.34
2023-04-14T20:58:44.000Z,277.34
2023-04-14T21:00:11.000Z,277.34
2023-04-14T21:02:17.000Z,277.34
2023-04-14T21:05:08.000Z,277.21
2023-04-14T21:06:34.000Z,277.21
2023-04-14T21:08:41.000Z,277.15
2023-04-14T21:10:07.000Z,277.27
2023-04-14T21:12:13.000Z,277.34
2023-04-14T21:13:41.000Z,277.27
2023-04-14T21:17:54.000Z,277.21
2023-04-14T21:19:21.000Z,277.09
2023-04-14T21:21:27.000Z,277.09
2023-04-14T21:22:54.000Z,277.09
2023-04-14T21:25:00.000Z,277.02
2023-04-14T21:26:26.000Z,277.02
2023-04-14T21:28:32.000Z,276.96
2023-04-14T21:29:59.000Z,276.96
2023-04-14T21:32:05.000Z,277.02
2023-04-14T21:33:32.000Z,276.9
2023-04-14T21:35:38.000Z,276.77
2023-04-14T21:37:04.000Z,276.77
2023-04-14T21:39:10.000Z,276.71
2023-04-14T21:40:37.000Z,276.65
2023-04-14T21:42:43.000Z,276.65
2023-04-14T21:45:34.000Z,276.65
2023-04-14T21:47:01.000Z,276.77
2023-04-14T21:49:07.000Z,276.77
2023-04-14T21:50:33.000Z,276.77
2023-04-14T21:52:40.000Z,276.77
2023-04-14T21:54:06.000Z,276.77
2023-04-14T21:56:12.000Z,276.77
2023-04-14T21:57:39.000Z,276.77
2023-04-14T21:59:53.000Z,276.77
2023-04-14T22:01:20.000Z,276.65
2023-04-14T22:03:26.000Z,276.52
2023-04-14T22:04:53.000Z,276.52
2023-04-14T22:06:59.000Z,276.46
2023-04-14T22:08:25.000Z,276.34
2023-04-14T22:10:32.000Z,276.27
2023-04-14T22:11:58.000Z,276.21
2023-04-14T22:14:04.000Z,276.21
2023-04-14T22:15:31.000Z,276.21
2023-04-14T22:17:37.000Z,276.21
2023-04-14T22:19:03.000Z,276.21
2023-04-14T22:21:09.000Z,276.21
2023-04-14T22:24:01.000Z,276.27
2023-04-14T22:25:27.000Z,276.34
2023-04-14T22:27:33.000Z,276.34
2023-04-14T22:29:00.000Z,276.34
2023-04-14T22:31:07.000Z,276.21
2023-04-14T22:32:33.000Z,276.21
2023-04-14T22:34:39.000Z,276.21
2023-04-14T22:36:06.000Z,276.27
2023-04-14T22:38:12.000Z,276.27
2023-04-14T22:39:38.000Z,276.27
2023-04-14T22:41:44.000Z,276.27
2023-04-14T22:43:11.000Z,276.27
2023-04-14T22:45:17.000Z,276.27
2023-04-14T22:46:43.000Z,276.27
2023-04-14T22:48:50.000Z,276.15
2023-04-14T22:50:16.000Z,276.15
2023-04-14T22:52:22.000Z,276.02
2023-04-14T22:53:49.000Z,275.96
2023-04-14T22:55:55.000Z,276.02
2023-04-14T22:57:21.000Z,276.09